Terminal Aerodrome Forecast
Issued by NWS

Home | Current Version | Previous Version | Text Only | Print | Product List | Glossary On
Versions: 1 2 3 4 5 6 7 8 9 10 11 12 13 14 15 16 17 18 19 20 21 22 23
000
FTUS45 KRIW 271422 AAB
TAFJAC
TAF AMD
KJAC 271422Z 2714/2812 24012G18KT 2SM -SHSN OVC008
      TEMPO 2714/2716 1SM -SN OVC004
     FM271800 22012KT 4SM -SHSN OVC020
     FM280300 35007KT P6SM VCSH SCT025 BKN035
      AMD LTD TO CLD VIS AND WIND=

USA.gov is the U.S. government's official web portal to all federal, state and local government web resources and services.